sensor_id;sensor_type;location;lat;lon;timestamp;P1;durP1;ratioP1;P2;durP2;ratioP2
6973;SDS011;3527;52.376;8.990;2023-05-07T00:00:18;39.73;;;28.03;;
6973;SDS011;3527;52.376;8.990;2023-05-07T00:02:45;43.37;;;28.57;;
6973;SDS011;3527;52.376;8.990;2023-05-07T00:05:12;40.70;;;28.10;;
6973;SDS011;3527;52.376;8.990;2023-05-07T00:07:40;44.23;;;30.50;;
6973;SDS011;3527;52.376;8.990;2023-05-07T00:10:07;43.50;;;28.67;;
6973;SDS011;3527;52.376;8.990;2023-05-07T00:12:34;41.83;;;28.13;;
6973;SDS011;3527;52.376;8.990;2023-05-07T00:15:04;40.63;;;27.60;;
6973;SDS011;3527;52.376;8.990;2023-05-07T00:17:31;45.97;;;29.43;;
6973;SDS011;3527;52.376;8.990;2023-05-07T00:19:57;47.77;;;31.20;;
6973;SDS011;3527;52.376;8.990;2023-05-07T00:22:24;49.07;;;31.93;;
6973;SDS011;3527;52.376;8.990;2023-05-07T00:24:50;50.00;;;32.53;;
6973;SDS011;3527;52.376;8.990;2023-05-07T00:27:17;51.00;;;33.87;;
6973;SDS011;3527;52.376;8.990;2023-05-07T00:29:43;54.73;;;33.80;;
6973;SDS011;3527;52.376;8.990;2023-05-07T00:32:10;54.03;;;34.20;;
6973;SDS011;3527;52.376;8.990;2023-05-07T00:34:37;57.03;;;36.47;;
6973;SDS011;3527;52.376;8.990;2023-05-07T00:37:03;52.90;;;35.37;;
6973;SDS011;3527;52.376;8.990;2023-05-07T00:39:31;53.80;;;34.57;;
6973;SDS011;3527;52.376;8.990;2023-05-07T00:41:58;53.60;;;34.67;;
6973;SDS011;3527;52.376;8.990;2023-05-07T00:44:25;54.03;;;35.43;;
6973;SDS011;3527;52.376;8.990;2023-05-07T00:46:52;56.90;;;36.47;;
6973;SDS011;3527;52.376;8.990;2023-05-07T00:49:19;59.53;;;37.43;;
6973;SDS011;3527;52.376;8.990;2023-05-07T00:51:46;57.20;;;35.60;;
6973;SDS011;3527;52.376;8.990;2023-05-07T00:54:13;59.37;;;36.17;;
6973;SDS011;3527;52.376;8.990;2023-05-07T00:56:39;55.67;;;35.53;;
6973;SDS011;3527;52.376;8.990;2023-05-07T00:59:06;55.87;;;35.20;;
6973;SDS011;3527;52.376;8.990;2023-05-07T01:01:33;58.93;;;37.10;;
6973;SDS011;3527;52.376;8.990;2023-05-07T01:03:59;55.77;;;36.43;;
6973;SDS011;3527;52.376;8.990;2023-05-07T01:06:26;57.93;;;36.57;;
6973;SDS011;3527;52.376;8.990;2023-05-07T01:08:54;60.07;;;36.63;;
6973;SDS011;3527;52.376;8.990;2023-05-07T01:11:23;60.63;;;37.63;;
6973;SDS011;3527;52.376;8.990;2023-05-07T01:13:49;56.83;;;36.40;;
6973;SDS011;3527;52.376;8.990;2023-05-07T01:16:16;59.30;;;37.93;;
6973;SDS011;3527;52.376;8.990;2023-05-07T01:18:43;60.80;;;35.97;;
6973;SDS011;3527;52.376;8.990;2023-05-07T01:21:10;57.37;;;34.53;;
6973;SDS011;3527;52.376;8.990;2023-05-07T01:23:39;57.23;;;36.00;;
6973;SDS011;3527;52.376;8.990;2023-05-07T01:26:06;54.03;;;35.50;;
6973;SDS011;3527;52.376;8.990;2023-05-07T01:28:32;60.83;;;34.93;;
6973;SDS011;3527;52.376;8.990;2023-05-07T01:31:02;56.70;;;35.53;;
6973;SDS011;3527;52.376;8.990;2023-05-07T01:33:30;56.17;;;35.47;;
6973;SDS011;3527;52.376;8.990;2023-05-07T01:35:57;60.43;;;35.90;;
6973;SDS011;3527;52.376;8.990;2023-05-07T01:38:26;60.67;;;36.97;;
6973;SDS011;3527;52.376;8.990;2023-05-07T01:40:53;53.40;;;33.70;;
6973;SDS011;3527;52.376;8.990;2023-05-07T01:43:20;57.67;;;34.37;;
6973;SDS011;3527;52.376;8.990;2023-05-07T01:45:46;54.80;;;33.83;;
6973;SDS011;3527;52.376;8.990;2023-05-07T01:48:15;57.53;;;33.33;;
6973;SDS011;3527;52.376;8.990;2023-05-07T01:50:42;59.90;;;35.60;;
6973;SDS011;3527;52.376;8.990;2023-05-07T01:53:09;57.50;;;34.87;;
6973;SDS011;3527;52.376;8.990;2023-05-07T01:55:36;59.77;;;34.87;;
6973;SDS011;3527;52.376;8.990;2023-05-07T01:58:03;53.90;;;32.33;;
6973;SDS011;3527;52.376;8.990;2023-05-07T02:00:30;56.17;;;34.50;;
6973;SDS011;3527;52.376;8.990;2023-05-07T02:02:57;56.13;;;34.17;;
6973;SDS011;3527;52.376;8.990;2023-05-07T02:05:24;63.47;;;35.63;;
6973;SDS011;3527;52.376;8.990;2023-05-07T02:07:50;60.57;;;35.43;;
6973;SDS011;3527;52.376;8.990;2023-05-07T02:10:17;56.77;;;35.17;;
6973;SDS011;3527;52.376;8.990;2023-05-07T02:12:43;58.10;;;33.97;;
6973;SDS011;3527;52.376;8.990;2023-05-07T02:15:10;62.17;;;33.83;;
6973;SDS011;3527;52.376;8.990;2023-05-07T02:17:57;53.13;;;32.13;;
6973;SDS011;3527;52.376;8.990;2023-05-07T02:20:25;56.50;;;33.27;;
6973;SDS011;3527;52.376;8.990;2023-05-07T02:22:52;55.30;;;33.43;;
6973;SDS011;3527;52.376;8.990;2023-05-07T02:25:18;64.13;;;35.17;;
6973;SDS011;3527;52.376;8.990;2023-05-07T02:27:45;56.60;;;34.23;;
6973;SDS011;3527;52.376;8.990;2023-05-07T02:30:12;58.87;;;36.07;;
6973;SDS011;3527;52.376;8.990;2023-05-07T02:32:38;54.37;;;33.10;;
6973;SDS011;3527;52.376;8.990;2023-05-07T02:35:06;58.13;;;34.30;;
6973;SDS011;3527;52.376;8.990;2023-05-07T02:37:33;63.67;;;34.87;;
6973;SDS011;3527;52.376;8.990;2023-05-07T02:39:59;57.87;;;33.57;;
6973;SDS011;3527;52.376;8.990;2023-05-07T02:42:26;59.60;;;35.00;;
6973;SDS011;3527;52.376;8.990;2023-05-07T02:44:53;57.47;;;34.73;;
6973;SDS011;3527;52.376;8.990;2023-05-07T02:47:19;57.83;;;33.97;;
6973;SDS011;3527;52.376;8.990;2023-05-07T02:49:46;63.67;;;35.67;;
6973;SDS011;3527;52.376;8.990;2023-05-07T02:52:12;62.77;;;35.93;;
6973;SDS011;3527;52.376;8.990;2023-05-07T02:54:39;65.73;;;33.83;;
6973;SDS011;3527;52.376;8.990;2023-05-07T02:57:05;58.20;;;34.33;;
6973;SDS011;3527;52.376;8.990;2023-05-07T02:59:32;63.03;;;35.63;;
6973;SDS011;3527;52.376;8.990;2023-05-07T03:01:59;61.00;;;34.63;;
6973;SDS011;3527;52.376;8.990;2023-05-07T03:04:25;65.07;;;35.30;;
6973;SDS011;3527;52.376;8.990;2023-05-07T03:06:52;61.43;;;35.27;;
6973;SDS011;3527;52.376;8.990;2023-05-07T03:09:19;62.57;;;33.60;;
6973;SDS011;3527;52.376;8.990;2023-05-07T03:11:46;61.50;;;34.80;;
6973;SDS011;3527;52.376;8.990;2023-05-07T03:14:12;61.73;;;34.23;;
6973;SDS011;3527;52.376;8.990;2023-05-07T03:16:39;55.23;;;32.50;;
6973;SDS011;3527;52.376;8.990;2023-05-07T03:19:06;59.43;;;32.27;;
6973;SDS011;3527;52.376;8.990;2023-05-07T03:21:33;62.87;;;33.67;;
6973;SDS011;3527;52.376;8.990;2023-05-07T03:24:00;57.37;;;32.40;;
6973;SDS011;3527;52.376;8.990;2023-05-07T03:26:28;54.07;;;30.63;;
6973;SDS011;3527;52.376;8.990;2023-05-07T03:28:55;53.90;;;31.53;;
6973;SDS011;3527;52.376;8.990;2023-05-07T03:31:22;58.30;;;33.27;;
6973;SDS011;3527;52.376;8.990;2023-05-07T03:33:49;53.17;;;30.70;;
6973;SDS011;3527;52.376;8.990;2023-05-07T03:36:16;52.47;;;30.70;;
6973;SDS011;3527;52.376;8.990;2023-05-07T03:38:43;51.40;;;30.03;;
6973;SDS011;3527;52.376;8.990;2023-05-07T03:41:09;52.70;;;30.70;;
6973;SDS011;3527;52.376;8.990;2023-05-07T03:43:36;52.13;;;30.80;;
6973;SDS011;3527;52.376;8.990;2023-05-07T03:46:03;53.87;;;30.90;;
6973;SDS011;3527;52.376;8.990;2023-05-07T03:48:29;47.13;;;27.50;;
6973;SDS011;3527;52.376;8.990;2023-05-07T03:50:59;45.10;;;27.97;;
6973;SDS011;3527;52.376;8.990;2023-05-07T03:53:26;44.60;;;27.47;;
6973;SDS011;3527;52.376;8.990;2023-05-07T03:55:53;46.80;;;27.67;;
6973;SDS011;3527;52.376;8.990;2023-05-07T03:58:22;45.10;;;28.33;;
6973;SDS011;3527;52.376;8.990;2023-05-07T04:00:49;38.67;;;25.07;;
6973;SDS011;3527;52.376;8.990;2023-05-07T04:03:16;35.67;;;23.37;;
6973;SDS011;3527;52.376;8.990;2023-05-07T04:05:43;40.27;;;25.33;;
6973;SDS011;3527;52.376;8.990;2023-05-07T04:08:10;38.50;;;24.47;;
6973;SDS011;3527;52.376;8.990;2023-05-07T04:10:36;39.43;;;25.37;;
6973;SDS011;3527;52.376;8.990;2023-05-07T04:13:03;38.07;;;24.03;;
6973;SDS011;3527;52.376;8.990;2023-05-07T04:15:50;38.73;;;24.67;;
6973;SDS011;3527;52.376;8.990;2023-05-07T04:18:37;38.73;;;24.97;;
6973;SDS011;3527;52.376;8.990;2023-05-07T04:21:23;38.10;;;24.10;;
6973;SDS011;3527;52.376;8.990;2023-05-07T04:24:10;35.70;;;23.27;;
6973;SDS011;3527;52.376;8.990;2023-05-07T04:26:40;34.60;;;22.77;;
6973;SDS011;3527;52.376;8.990;2023-05-07T04:29:27;38.00;;;23.83;;
6973;SDS011;3527;52.376;8.990;2023-05-07T04:32:14;34.90;;;22.77;;
6973;SDS011;3527;52.376;8.990;2023-05-07T04:34:44;31.73;;;22.30;;
6973;SDS011;3527;52.376;8.990;2023-05-07T04:37:21;33.97;;;22.90;;
6973;SDS011;3527;52.376;8.990;2023-05-07T04:40:08;38.67;;;23.83;;
6973;SDS011;3527;52.376;8.990;2023-05-07T04:42:48;38.37;;;24.83;;
6973;SDS011;3527;52.376;8.990;2023-05-07T04:45:18;35.63;;;24.70;;
6973;SDS011;3527;52.376;8.990;2023-05-07T04:47:45;37.67;;;24.47;;
6973;SDS011;3527;52.376;8.990;2023-05-07T04:50:12;36.03;;;24.80;;
6973;SDS011;3527;52.376;8.990;2023-05-07T04:52:39;37.50;;;24.77;;
6973;SDS011;3527;52.376;8.990;2023-05-07T04:55:06;35.73;;;23.70;;
6973;SDS011;3527;52.376;8.990;2023-05-07T04:57:32;41.93;;;25.70;;
6973;SDS011;3527;52.376;8.990;2023-05-07T04:59:59;39.63;;;26.80;;
6973;SDS011;3527;52.376;8.990;2023-05-07T05:02:25;36.80;;;24.73;;
6973;SDS011;3527;52.376;8.990;2023-05-07T05:04:52;39.20;;;25.63;;
6973;SDS011;3527;52.376;8.990;2023-05-07T05:07:19;39.30;;;26.27;;
6973;SDS011;3527;52.376;8.990;2023-05-07T05:09:45;40.00;;;27.00;;
6973;SDS011;3527;52.376;8.990;2023-05-07T05:12:12;37.53;;;26.07;;
6973;SDS011;3527;52.376;8.990;2023-05-07T05:14:38;38.57;;;24.93;;
6973;SDS011;3527;52.376;8.990;2023-05-07T05:17:05;37.97;;;25.50;;
6973;SDS011;3527;52.376;8.990;2023-05-07T05:19:31;35.80;;;25.60;;
6973;SDS011;3527;52.376;8.990;2023-05-07T05:21:58;36.40;;;24.50;;
6973;SDS011;3527;52.376;8.990;2023-05-07T05:24:27;36.30;;;24.50;;
6973;SDS011;3527;52.376;8.990;2023-05-07T05:26:53;40.40;;;25.57;;
6973;SDS011;3527;52.376;8.990;2023-05-07T05:29:20;39.07;;;25.37;;
6973;SDS011;3527;52.376;8.990;2023-05-07T05:31:47;38.10;;;24.67;;
6973;SDS011;3527;52.376;8.990;2023-05-07T05:34:14;38.07;;;25.67;;
6973;SDS011;3527;52.376;8.990;2023-05-07T05:36:40;38.73;;;26.03;;
6973;SDS011;3527;52.376;8.990;2023-05-07T05:39:07;39.93;;;25.50;;
6973;SDS011;3527;52.376;8.990;2023-05-07T05:41:34;43.63;;;25.93;;
6973;SDS011;3527;52.376;8.990;2023-05-07T05:44:01;39.13;;;25.57;;
6973;SDS011;3527;52.376;8.990;2023-05-07T05:46:27;36.43;;;24.37;;
6973;SDS011;3527;52.376;8.990;2023-05-07T05:48:54;35.70;;;24.63;;
6973;SDS011;3527;52.376;8.990;2023-05-07T05:51:21;36.67;;;23.83;;
6973;SDS011;3527;52.376;8.990;2023-05-07T05:53:47;33.77;;;23.67;;
6973;SDS011;3527;52.376;8.990;2023-05-07T05:56:14;33.77;;;23.40;;
6973;SDS011;3527;52.376;8.990;2023-05-07T05:58:41;33.77;;;23.27;;
6973;SDS011;3527;52.376;8.990;2023-05-07T06:01:08;35.10;;;23.20;;
6973;SDS011;3527;52.376;8.990;2023-05-07T06:03:35;32.27;;;22.67;;
6973;SDS011;3527;52.376;8.990;2023-05-07T06:06:01;30.20;;;21.63;;
6973;SDS011;3527;52.376;8.990;2023-05-07T06:08:31;30.87;;;21.80;;
6973;SDS011;3527;52.376;8.990;2023-05-07T06:10:58;33.00;;;21.90;;
6973;SDS011;3527;52.376;8.990;2023-05-07T06:13:24;34.07;;;22.63;;
6973;SDS011;3527;52.376;8.990;2023-05-07T06:15:52;33.57;;;21.53;;
6973;SDS011;3527;52.376;8.990;2023-05-07T06:18:18;30.23;;;21.10;;
6973;SDS011;3527;52.376;8.990;2023-05-07T06:20:45;33.80;;;22.37;;
6973;SDS011;3527;52.376;8.990;2023-05-07T06:23:12;28.30;;;20.87;;
6973;SDS011;3527;52.376;8.990;2023-05-07T06:25:41;33.90;;;21.53;;
6973;SDS011;3527;52.376;8.990;2023-05-07T06:28:07;32.20;;;20.97;;
6973;SDS011;3527;52.376;8.990;2023-05-07T06:30:35;31.50;;;21.37;;
6973;SDS011;3527;52.376;8.990;2023-05-07T06:33:02;28.57;;;21.73;;
6973;SDS011;3527;52.376;8.990;2023-05-07T06:35:29;29.90;;;21.30;;
6973;SDS011;3527;52.376;8.990;2023-05-07T06:37:55;28.70;;;20.87;;
6973;SDS011;3527;52.376;8.990;2023-05-07T06:40:22;32.37;;;21.67;;
6973;SDS011;3527;52.376;8.990;2023-05-07T06:42:49;29.60;;;21.63;;
6973;SDS011;3527;52.376;8.990;2023-05-07T06:45:15;29.87;;;21.97;;
6973;SDS011;3527;52.376;8.990;2023-05-07T06:47:42;29.47;;;20.80;;
6973;SDS011;3527;52.376;8.990;2023-05-07T06:50:09;28.83;;;20.40;;
6973;SDS011;3527;52.376;8.990;2023-05-07T06:52:36;27.30;;;20.03;;
6973;SDS011;3527;52.376;8.990;2023-05-07T06:55:03;26.60;;;19.57;;
6973;SDS011;3527;52.376;8.990;2023-05-07T06:57:30;26.03;;;19.20;;
6973;SDS011;3527;52.376;8.990;2023-05-07T06:59:57;27.17;;;20.73;;
6973;SDS011;3527;52.376;8.990;2023-05-07T07:02:24;25.97;;;18.30;;
6973;SDS011;3527;52.376;8.990;2023-05-07T07:04:50;25.53;;;19.30;;
6973;SDS011;3527;52.376;8.990;2023-05-07T07:07:17;23.43;;;18.00;;
6973;SDS011;3527;52.376;8.990;2023-05-07T07:09:44;22.67;;;16.93;;
6973;SDS011;3527;52.376;8.990;2023-05-07T07:12:11;21.30;;;16.87;;
6973;SDS011;3527;52.376;8.990;2023-05-07T07:14:38;21.97;;;17.77;;
6973;SDS011;3527;52.376;8.990;2023-05-07T07:17:04;23.90;;;17.10;;
6973;SDS011;3527;52.376;8.990;2023-05-07T07:19:31;23.87;;;18.03;;
6973;SDS011;3527;52.376;8.990;2023-05-07T07:21:58;25.33;;;17.43;;
6973;SDS011;3527;52.376;8.990;2023-05-07T07:24:25;22.10;;;16.93;;
6973;SDS011;3527;52.376;8.990;2023-05-07T07:26:52;17.73;;;14.17;;
6973;SDS011;3527;52.376;8.990;2023-05-07T07:29:19;19.27;;;15.73;;
6973;SDS011;3527;52.376;8.990;2023-05-07T07:31:47;22.87;;;15.53;;
6973;SDS011;3527;52.376;8.990;2023-05-07T07:34:14;18.77;;;14.77;;
6973;SDS011;3527;52.376;8.990;2023-05-07T07:36:41;21.23;;;14.90;;
6973;SDS011;3527;52.376;8.990;2023-05-07T07:39:12;18.47;;;14.80;;
6973;SDS011;3527;52.376;8.990;2023-05-07T07:41:41;19.80;;;15.20;;
6973;SDS011;3527;52.376;8.990;2023-05-07T07:44:08;18.17;;;13.70;;
6973;SDS011;3527;52.376;8.990;2023-05-07T07:46:35;17.60;;;14.03;;
6973;SDS011;3527;52.376;8.990;2023-05-07T07:49:02;19.20;;;13.93;;
6973;SDS011;3527;52.376;8.990;2023-05-07T07:51:29;15.30;;;12.70;;
6973;SDS011;3527;52.376;8.990;2023-05-07T07:53:56;16.50;;;12.67;;
6973;SDS011;3527;52.376;8.990;2023-05-07T07:56:24;16.53;;;12.13;;
6973;SDS011;3527;52.376;8.990;2023-05-07T07:58:51;17.03;;;12.87;;
6973;SDS011;3527;52.376;8.990;2023-05-07T08:01:17;14.10;;;11.47;;
6973;SDS011;3527;52.376;8.990;2023-05-07T08:03:44;15.23;;;11.27;;
6973;SDS011;3527;52.376;8.990;2023-05-07T08:06:11;15.13;;;11.13;;
6973;SDS011;3527;52.376;8.990;2023-05-07T08:08:38;14.93;;;11.43;;
6973;SDS011;3527;52.376;8.990;2023-05-07T08:11:04;14.77;;;10.50;;
6973;SDS011;3527;52.376;8.990;2023-05-07T08:13:31;13.70;;;10.37;;
6973;SDS011;3527;52.376;8.990;2023-05-07T08:15:57;14.57;;;10.40;;
6973;SDS011;3527;52.376;8.990;2023-05-07T08:18:25;14.63;;;10.67;;
6973;SDS011;3527;52.376;8.990;2023-05-07T08:20:51;15.13;;;10.63;;
6973;SDS011;3527;52.376;8.990;2023-05-07T08:23:18;14.43;;;10.20;;
6973;SDS011;3527;52.376;8.990;2023-05-07T08:25:44;12.63;;;9.70;;
6973;SDS011;3527;52.376;8.990;2023-05-07T08:28:11;12.57;;;9.50;;
6973;SDS011;3527;52.376;8.990;2023-05-07T08:30:38;12.03;;;10.03;;
6973;SDS011;3527;52.376;8.990;2023-05-07T08:33:04;14.80;;;9.20;;
6973;SDS011;3527;52.376;8.990;2023-05-07T08:35:31;11.33;;;9.33;;
6973;SDS011;3527;52.376;8.990;2023-05-07T08:37:57;14.20;;;8.80;;
6973;SDS011;3527;52.376;8.990;2023-05-07T08:40:26;13.73;;;10.00;;
6973;SDS011;3527;52.376;8.990;2023-05-07T08:42:53;12.47;;;9.10;;
6973;SDS011;3527;52.376;8.990;2023-05-07T08:45:20;12.73;;;9.83;;
6973;SDS011;3527;52.376;8.990;2023-05-07T08:47:48;13.43;;;9.27;;
6973;SDS011;3527;52.376;8.990;2023-05-07T08:50:16;11.40;;;8.97;;
6973;SDS011;3527;52.376;8.990;2023-05-07T08:52:43;11.90;;;8.83;;
6973;SDS011;3527;52.376;8.990;2023-05-07T08:55:10;10.47;;;8.37;;
6973;SDS011;3527;52.376;8.990;2023-05-07T08:57:38;11.97;;;9.30;;
6973;SDS011;3527;52.376;8.990;2023-05-07T09:00:06;11.13;;;8.37;;
6973;SDS011;3527;52.376;8.990;2023-05-07T09:02:36;11.40;;;8.07;;
6973;SDS011;3527;52.376;8.990;2023-05-07T09:05:03;12.13;;;8.20;;
6973;SDS011;3527;52.376;8.990;2023-05-07T09:07:30;9.67;;;8.07;;
6973;SDS011;3527;52.376;8.990;2023-05-07T09:09:56;9.37;;;7.50;;
6973;SDS011;3527;52.376;8.990;2023-05-07T09:12:26;11.80;;;7.90;;
6973;SDS011;3527;52.376;8.990;2023-05-07T09:14:52;9.50;;;8.30;;
6973;SDS011;3527;52.376;8.990;2023-05-07T09:17:19;10.63;;;7.80;;
6973;SDS011;3527;52.376;8.990;2023-05-07T09:19:46;10.60;;;7.30;;
6973;SDS011;3527;52.376;8.990;2023-05-07T09:22:13;13.30;;;8.50;;
6973;SDS011;3527;52.376;8.990;2023-05-07T09:24:40;11.13;;;8.73;;
6973;SDS011;3527;52.376;8.990;2023-05-07T09:27:07;10.67;;;8.17;;
6973;SDS011;3527;52.376;8.990;2023-05-07T09:29:35;9.80;;;7.50;;
6973;SDS011;3527;52.376;8.990;2023-05-07T09:32:02;10.90;;;8.53;;
6973;SDS011;3527;52.376;8.990;2023-05-07T09:34:29;11.80;;;8.90;;
6973;SDS011;3527;52.376;8.990;2023-05-07T09:37:03;10.73;;;8.13;;
6973;SDS011;3527;52.376;8.990;2023-05-07T09:39:43;11.50;;;8.57;;
6973;SDS011;3527;52.376;8.990;2023-05-07T09:42:10;12.37;;;8.70;;
6973;SDS011;3527;52.376;8.990;2023-05-07T09:44:38;12.17;;;9.37;;
6973;SDS011;3527;52.376;8.990;2023-05-07T09:47:05;11.23;;;8.63;;
6973;SDS011;3527;52.376;8.990;2023-05-07T09:49:33;10.37;;;8.70;;
6973;SDS011;3527;52.376;8.990;2023-05-07T09:52:00;11.60;;;9.33;;
6973;SDS011;3527;52.376;8.990;2023-05-07T09:54:27;10.57;;;9.47;;
6973;SDS011;3527;52.376;8.990;2023-05-07T09:56:57;12.60;;;9.70;;
6973;SDS011;3527;52.376;8.990;2023-05-07T09:59:24;12.03;;;10.33;;
6973;SDS011;3527;52.376;8.990;2023-05-07T10:01:59;10.93;;;9.60;;
6973;SDS011;3527;52.376;8.990;2023-05-07T10:04:30;14.53;;;10.80;;
6973;SDS011;3527;52.376;8.990;2023-05-07T10:06:57;12.00;;;10.63;;
6973;SDS011;3527;52.376;8.990;2023-05-07T10:09:25;12.50;;;11.20;;
6973;SDS011;3527;52.376;8.990;2023-05-07T10:11:52;12.93;;;10.63;;
6973;SDS011;3527;52.376;8.990;2023-05-07T10:14:20;13.30;;;10.80;;
6973;SDS011;3527;52.376;8.990;2023-05-07T10:16:47;12.10;;;10.60;;
6973;SDS011;3527;52.376;8.990;2023-05-07T10:19:14;11.93;;;10.10;;
6973;SDS011;3527;52.376;8.990;2023-05-07T10:21:44;10.70;;;9.60;;
6973;SDS011;3527;52.376;8.990;2023-05-07T10:24:19;11.83;;;10.60;;
6973;SDS011;3527;52.376;8.990;2023-05-07T10:26:50;12.43;;;10.20;;
6973;SDS011;3527;52.376;8.990;2023-05-07T10:32:12;13.57;;;11.63;;
6973;SDS011;3527;52.376;8.990;2023-05-07T10:34:42;13.63;;;11.10;;
6973;SDS011;3527;52.376;8.990;2023-05-07T10:37:09;13.23;;;11.13;;
6973;SDS011;3527;52.376;8.990;2023-05-07T10:39:37;13.10;;;10.87;;
6973;SDS011;3527;52.376;8.990;2023-05-07T10:42:07;12.67;;;11.20;;
6973;SDS011;3527;52.376;8.990;2023-05-07T10:44:34;11.80;;;10.60;;
6973;SDS011;3527;52.376;8.990;2023-05-07T10:47:08;11.70;;;10.20;;
6973;SDS011;3527;52.376;8.990;2023-05-07T10:52:15;10.80;;;9.67;;
6973;SDS011;3527;52.376;8.990;2023-05-07T10:54:42;12.10;;;10.10;;
6973;SDS011;3527;52.376;8.990;2023-05-07T10:59:55;11.27;;;9.53;;
6973;SDS011;3527;52.376;8.990;2023-05-07T11:02:42;10.67;;;9.20;;
6973;SDS011;3527;52.376;8.990;2023-05-07T11:10:22;12.83;;;10.13;;
6973;SDS011;3527;52.376;8.990;2023-05-07T11:12:50;11.80;;;10.27;;
6973;SDS011;3527;52.376;8.990;2023-05-07T11:15:39;11.50;;;9.67;;
6973;SDS011;3527;52.376;8.990;2023-05-07T11:18:04;11.63;;;9.10;;
6973;SDS011;3527;52.376;8.990;2023-05-07T11:23:55;9.93;;;8.93;;
6973;SDS011;3527;52.376;8.990;2023-05-07T11:28:30;10.20;;;9.10;;
6973;SDS011;3527;52.376;8.990;2023-05-07T11:30:57;10.10;;;8.83;;
6973;SDS011;3527;52.376;8.990;2023-05-07T11:33:24;12.67;;;9.90;;
6973;SDS011;3527;52.376;8.990;2023-05-07T11:35:54;11.43;;;9.53;;
6973;SDS011;3527;52.376;8.990;2023-05-07T11:38:20;11.07;;;9.70;;
6973;SDS011;3527;52.376;8.990;2023-05-07T11:40:51;10.57;;;9.30;;
6973;SDS011;3527;52.376;8.990;2023-05-07T11:43:18;10.77;;;9.67;;
6973;SDS011;3527;52.376;8.990;2023-05-07T11:45:45;11.27;;;9.73;;
6973;SDS011;3527;52.376;8.990;2023-05-07T11:48:13;13.40;;;11.07;;
6973;SDS011;3527;52.376;8.990;2023-05-07T11:53:25;12.20;;;10.37;;
6973;SDS011;3527;52.376;8.990;2023-05-07T11:55:52;13.03;;;10.63;;
6973;SDS011;3527;52.376;8.990;2023-05-07T11:58:22;12.63;;;10.67;;
6973;SDS011;3527;52.376;8.990;2023-05-07T12:00:50;12.03;;;10.73;;
6973;SDS011;3527;52.376;8.990;2023-05-07T12:03:16;12.97;;;10.90;;
6973;SDS011;3527;52.376;8.990;2023-05-07T12:05:44;12.47;;;11.07;;
6973;SDS011;3527;52.376;8.990;2023-05-07T12:08:14;11.90;;;10.37;;
6973;SDS011;3527;52.376;8.990;2023-05-07T12:10:42;12.07;;;10.47;;
6973;SDS011;3527;52.376;8.990;2023-05-07T12:15:42;13.20;;;11.10;;
6973;SDS011;3527;52.376;8.990;2023-05-07T12:18:10;12.30;;;10.97;;
6973;SDS011;3527;52.376;8.990;2023-05-07T12:20:37;13.97;;;11.70;;
6973;SDS011;3527;52.376;8.990;2023-05-07T12:23:03;12.87;;;11.47;;
6973;SDS011;3527;52.376;8.990;2023-05-07T12:25:30;12.70;;;10.90;;
6973;SDS011;3527;52.376;8.990;2023-05-07T12:27:57;12.33;;;10.47;;
6973;SDS011;3527;52.376;8.990;2023-05-07T12:30:26;12.87;;;11.07;;
6973;SDS011;3527;52.376;8.990;2023-05-07T12:32:53;11.93;;;10.77;;
6973;SDS011;3527;52.376;8.990;2023-05-07T12:35:27;12.07;;;10.87;;
6973;SDS011;3527;52.376;8.990;2023-05-07T12:37:57;12.23;;;11.03;;
6973;SDS011;3527;52.376;8.990;2023-05-07T12:40:39;12.03;;;10.50;;
6973;SDS011;3527;52.376;8.990;2023-05-07T12:43:06;12.03;;;10.23;;
6973;SDS011;3527;52.376;8.990;2023-05-07T12:45:38;13.77;;;10.30;;
6973;SDS011;3527;52.376;8.990;2023-05-07T12:48:05;11.37;;;10.17;;
6973;SDS011;3527;52.376;8.990;2023-05-07T12:50:32;14.07;;;10.40;;
6973;SDS011;3527;52.376;8.990;2023-05-07T12:53:00;11.90;;;10.13;;
6973;SDS011;3527;52.376;8.990;2023-05-07T12:55:26;11.90;;;10.70;;
6973;SDS011;3527;52.376;8.990;2023-05-07T12:58:00;11.53;;;10.10;;
6973;SDS011;3527;52.376;8.990;2023-05-07T13:00:37;11.90;;;10.43;;
6973;SDS011;3527;52.376;8.990;2023-05-07T13:03:04;12.57;;;10.83;;
6973;SDS011;3527;52.376;8.990;2023-05-07T13:05:31;12.40;;;10.03;;
6973;SDS011;3527;52.376;8.990;2023-05-07T13:07:58;11.27;;;10.17;;
6973;SDS011;3527;52.376;8.990;2023-05-07T13:10:25;13.17;;;10.70;;
6973;SDS011;3527;52.376;8.990;2023-05-07T13:12:52;11.53;;;10.13;;
6973;SDS011;3527;52.376;8.990;2023-05-07T13:15:19;11.20;;;9.97;;
6973;SDS011;3527;52.376;8.990;2023-05-07T13:17:46;11.93;;;10.57;;
6973;SDS011;3527;52.376;8.990;2023-05-07T13:20:12;11.70;;;10.50;;
6973;SDS011;3527;52.376;8.990;2023-05-07T13:22:39;11.27;;;10.17;;
6973;SDS011;3527;52.376;8.990;2023-05-07T13:25:06;11.17;;;10.07;;
6973;SDS011;3527;52.376;8.990;2023-05-07T13:27:33;10.70;;;9.60;;
6973;SDS011;3527;52.376;8.990;2023-05-07T13:30:03;10.30;;;9.20;;
6973;SDS011;3527;52.376;8.990;2023-05-07T13:32:30;11.00;;;9.80;;
6973;SDS011;3527;52.376;8.990;2023-05-07T13:34:58;10.23;;;9.23;;
6973;SDS011;3527;52.376;8.990;2023-05-07T13:37:24;10.97;;;9.83;;
6973;SDS011;3527;52.376;8.990;2023-05-07T13:39:51;11.50;;;10.33;;
6973;SDS011;3527;52.376;8.990;2023-05-07T13:42:17;9.63;;;8.57;;
6973;SDS011;3527;52.376;8.990;2023-05-07T13:44:44;11.97;;;9.07;;
6973;SDS011;3527;52.376;8.990;2023-05-07T13:47:11;11.57;;;9.07;;
6973;SDS011;3527;52.376;8.990;2023-05-07T13:49:38;10.00;;;8.60;;
6973;SDS011;3527;52.376;8.990;2023-05-07T13:52:05;9.77;;;8.73;;
6973;SDS011;3527;52.376;8.990;2023-05-07T13:54:31;11.87;;;8.47;;
6973;SDS011;3527;52.376;8.990;2023-05-07T13:56:58;11.00;;;9.07;;
6973;SDS011;3527;52.376;8.990;2023-05-07T13:59:25;9.77;;;8.87;;
6973;SDS011;3527;52.376;8.990;2023-05-07T14:01:51;10.70;;;9.20;;
6973;SDS011;3527;52.376;8.990;2023-05-07T14:04:18;9.27;;;8.37;;
6973;SDS011;3527;52.376;8.990;2023-05-07T14:06:45;12.07;;;8.47;;
6973;SDS011;3527;52.376;8.990;2023-05-07T14:09:11;10.70;;;8.27;;
6973;SDS011;3527;52.376;8.990;2023-05-07T14:11:39;8.80;;;7.90;;
6973;SDS011;3527;52.376;8.990;2023-05-07T14:14:06;9.17;;;8.13;;
6973;SDS011;3527;52.376;8.990;2023-05-07T14:16:32;8.70;;;7.80;;
6973;SDS011;3527;52.376;8.990;2023-05-07T14:18:59;9.87;;;8.43;;
6973;SDS011;3527;52.376;8.990;2023-05-07T14:21:26;8.80;;;7.90;;
6973;SDS011;3527;52.376;8.990;2023-05-07T14:23:52;8.23;;;7.43;;
6973;SDS011;3527;52.376;8.990;2023-05-07T14:26:19;8.87;;;8.00;;
6973;SDS011;3527;52.376;8.990;2023-05-07T14:28:47;9.07;;;8.17;;
6973;SDS011;3527;52.376;8.990;2023-05-07T14:31:13;12.13;;;8.07;;
6973;SDS011;3527;52.376;8.990;2023-05-07T14:33:40;9.37;;;8.47;;
6973;SDS011;3527;52.376;8.990;2023-05-07T14:36:07;8.70;;;7.90;;
6973;SDS011;3527;52.376;8.990;2023-05-07T14:38:34;9.10;;;8.23;;
6973;SDS011;3527;52.376;8.990;2023-05-07T14:41:00;9.57;;;8.50;;
6973;SDS011;3527;52.376;8.990;2023-05-07T14:43:27;10.80;;;9.07;;
6973;SDS011;3527;52.376;8.990;2023-05-07T14:45:54;10.87;;;9.77;;
6973;SDS011;3527;52.376;8.990;2023-05-07T14:48:20;11.77;;;10.07;;
6973;SDS011;3527;52.376;8.990;2023-05-07T14:50:47;11.77;;;10.53;;
6973;SDS011;3527;52.376;8.990;2023-05-07T14:53:15;11.33;;;10.23;;
6973;SDS011;3527;52.376;8.990;2023-05-07T14:55:42;11.00;;;9.57;;
6973;SDS011;3527;52.376;8.990;2023-05-07T14:58:08;15.07;;;12.33;;
6973;SDS011;3527;52.376;8.990;2023-05-07T15:00:35;13.33;;;11.73;;
6973;SDS011;3527;52.376;8.990;2023-05-07T15:03:06;11.57;;;10.27;;
6973;SDS011;3527;52.376;8.990;2023-05-07T15:05:34;14.47;;;10.97;;
6973;SDS011;3527;52.376;8.990;2023-05-07T15:08:00;18.13;;;11.80;;
6973;SDS011;3527;52.376;8.990;2023-05-07T15:10:27;12.00;;;10.90;;
6973;SDS011;3527;52.376;8.990;2023-05-07T15:12:53;12.33;;;10.90;;
6973;SDS011;3527;52.376;8.990;2023-05-07T15:15:20;12.10;;;10.90;;
6973;SDS011;3527;52.376;8.990;2023-05-07T15:17:47;12.70;;;11.27;;
6973;SDS011;3527;52.376;8.990;2023-05-07T15:20:13;14.43;;;12.40;;